createdAt,value
2019-01-29T00:01:08.825Z,3.40
2019-01-29T00:03:57.564Z,3.40
2019-01-29T00:06:46.086Z,3.40
2019-01-29T00:09:34.274Z,3.40
2019-01-29T00:12:22.711Z,3.40
2019-01-29T00:15:11.094Z,3.40
2019-01-29T00:17:59.310Z,3.40
2019-01-29T00:20:47.510Z,3.40
2019-01-29T00:23:35.769Z,3.30
2019-01-29T00:26:23.963Z,3.30
2019-01-29T00:29:05.128Z,3.30
2019-01-29T00:31:46.336Z,3.00
2019-01-29T00:34:26.989Z,2.90
2019-01-29T00:37:08.067Z,3.00
2019-01-29T00:39:48.854Z,3.10
2019-01-29T00:42:30.238Z,3.10
2019-01-29T00:45:11.322Z,3.00
2019-01-29T00:47:51.907Z,3.00
2019-01-29T00:50:32.362Z,3.00
2019-01-29T00:53:13.574Z,2.90
2019-01-29T00:55:54.061Z,2.80
2019-01-29T00:58:35.167Z,2.80
2019-01-29T01:01:16.376Z,2.70
2019-01-29T01:03:56.931Z,2.70
2019-01-29T01:06:37.687Z,2.80
2019-01-29T01:09:18.864Z,2.70
2019-01-29T01:11:59.610Z,2.70
2019-01-29T01:14:40.166Z,2.70
2019-01-29T01:17:21.422Z,2.70
2019-01-29T01:20:03.019Z,2.60
2019-01-29T01:22:50.843Z,2.60
2019-01-29T01:25:26.990Z,2.60
2019-01-29T01:28:07.597Z,2.70
2019-01-29T01:30:48.942Z,2.60
2019-01-29T01:33:29.517Z,2.50
2019-01-29T01:36:10.851Z,2.50
2019-01-29T01:38:51.535Z,2.50
2019-01-29T01:41:32.400Z,2.50
2019-01-29T01:44:14.018Z,2.40
2019-01-29T01:46:54.798Z,2.50
2019-01-29T01:49:35.945Z,2.40
2019-01-29T01:52:16.403Z,2.30
2019-01-29T01:54:57.290Z,2.40
2019-01-29T01:57:38.419Z,2.40
2019-01-29T02:00:18.976Z,2.40
2019-01-29T02:03:00.184Z,2.40
2019-01-29T02:05:41.020Z,2.40
2019-01-29T02:08:22.002Z,2.40
2019-01-29T02:11:02.930Z,2.40
2019-01-29T02:13:44.107Z,2.50
2019-01-29T02:16:25.002Z,2.60
2019-01-29T02:19:05.463Z,2.60
2019-01-29T02:21:46.212Z,2.60
2019-01-29T02:24:27.315Z,2.60
2019-01-29T02:27:08.547Z,2.60
2019-01-29T02:29:50.091Z,2.60
2019-01-29T02:32:31.631Z,2.70
2019-01-29T02:35:12.129Z,2.70
2019-01-29T02:37:52.678Z,2.60
2019-01-29T02:40:34.083Z,2.50
2019-01-29T02:43:15.192Z,2.50
2019-01-29T02:45:55.907Z,2.50
2019-01-29T02:48:37.148Z,2.60
2019-01-29T02:51:18.021Z,2.50
2019-01-29T02:53:58.948Z,2.50
2019-01-29T02:56:39.748Z,2.50
2019-01-29T02:59:20.506Z,2.40
2019-01-29T03:02:01.587Z,2.40
2019-01-29T03:04:43.026Z,2.50
2019-01-29T03:07:24.359Z,2.50
2019-01-29T03:10:05.026Z,2.40
2019-01-29T03:12:45.940Z,2.40
2019-01-29T03:15:27.396Z,2.50
2019-01-29T03:18:09.056Z,2.30
2019-01-29T03:20:49.635Z,2.40
2019-01-29T03:23:30.384Z,2.30
2019-01-29T03:26:11.373Z,2.30
2019-01-29T03:28:52.155Z,2.20
2019-01-29T03:31:32.576Z,2.30
2019-01-29T03:34:14.018Z,2.30
2019-01-29T03:36:55.104Z,2.40
2019-01-29T03:39:36.635Z,2.30
2019-01-29T03:42:18.170Z,2.30
2019-01-29T03:44:58.757Z,2.40
2019-01-29T03:47:40.374Z,2.30
2019-01-29T03:50:21.223Z,2.30
2019-01-29T03:53:02.492Z,2.20
2019-01-29T03:55:43.518Z,2.20
2019-01-29T03:58:24.847Z,2.10
2019-01-29T04:01:05.749Z,2.10
2019-01-29T04:03:47.104Z,2.10
2019-01-29T04:06:28.152Z,2.20
2019-01-29T04:09:09.531Z,2.20
2019-01-29T04:11:51.127Z,2.20
2019-01-29T04:14:32.794Z,2.10
2019-01-29T04:17:14.426Z,2.10
2019-01-29T04:19:55.980Z,2.10
2019-01-29T04:22:36.335Z,2.00
2019-01-29T04:25:17.612Z,2.00
2019-01-29T04:27:46.810Z,2.10
2019-01-29T04:30:35.039Z,2.10
2019-01-29T04:33:23.607Z,2.10
2019-01-29T04:36:11.834Z,2.10
2019-01-29T04:39:00.054Z,2.00
2019-01-29T04:41:48.297Z,2.00
2019-01-29T04:44:36.631Z,2.00
2019-01-29T04:47:25.384Z,2.00
2019-01-29T04:50:14.648Z,2.00
2019-01-29T04:53:02.841Z,2.00
2019-01-29T04:55:51.066Z,2.10
2019-01-29T04:58:39.358Z,2.10
2019-01-29T05:08:04.251Z,2.00
2019-01-29T05:10:33.459Z,2.00
2019-01-29T05:13:03.235Z,2.00
2019-01-29T05:15:51.600Z,2.00
2019-01-29T05:18:40.250Z,2.00
2019-01-29T05:21:28.546Z,2.00
2019-01-29T05:24:16.766Z,2.00
2019-01-29T05:27:05.483Z,2.00
2019-01-29T05:29:54.046Z,2.10
2019-01-29T05:32:42.595Z,2.00
2019-01-29T05:35:31.140Z,2.00
2019-01-29T05:38:19.615Z,2.00
2019-01-29T05:41:07.963Z,2.00
2019-01-29T05:43:56.268Z,1.90
2019-01-29T05:46:44.534Z,2.00
2019-01-29T05:49:32.769Z,1.90
2019-01-29T05:52:21.455Z,1.90
2019-01-29T05:55:09.764Z,1.90
2019-01-29T05:57:58.111Z,1.90
2019-01-29T06:00:46.429Z,1.80
2019-01-29T06:03:27.523Z,1.70
2019-01-29T06:06:08.484Z,1.60
2019-01-29T06:08:49.707Z,1.60
2019-01-29T06:11:30.843Z,1.70
2019-01-29T06:14:12.485Z,1.60
2019-01-29T06:37:24.883Z,1.50
2019-01-29T06:42:54.004Z,1.60
2019-01-29T06:45:35.018Z,1.60
2019-01-29T06:48:16.789Z,1.50
2019-01-29T06:51:07.712Z,1.60
2019-01-29T07:02:24.496Z,1.60
2019-01-29T07:05:05.108Z,1.60
2019-01-29T07:07:46.549Z,1.60
2019-01-29T07:10:17.047Z,1.70
2019-01-29T07:13:05.282Z,1.50
2019-01-29T07:16:12.755Z,1.50
2019-01-29T07:19:20.082Z,1.50
2019-01-29T07:22:08.438Z,1.50
2019-01-29T07:24:56.624Z,1.50
2019-01-29T07:27:44.830Z,1.50
2019-01-29T07:30:15.215Z,1.50
2019-01-29T07:33:03.412Z,1.50
2019-01-29T07:35:32.498Z,1.70
2019-01-29T07:38:20.719Z,1.80
2019-01-29T07:41:08.900Z,1.80
2019-01-29T07:43:50.447Z,1.70
2019-01-29T07:46:31.968Z,1.80
2019-01-29T07:49:13.130Z,1.90
2019-01-29T07:51:53.736Z,1.90
2019-01-29T07:54:35.300Z,1.90
2019-01-29T07:57:16.551Z,2.10
2019-01-29T07:59:57.499Z,2.10
2019-01-29T08:02:38.156Z,2.10
2019-01-29T08:05:20.673Z,2.00
2019-01-29T08:08:01.760Z,2.10
2019-01-29T08:10:42.344Z,2.10
2019-01-29T08:13:22.793Z,2.00
2019-01-29T08:16:03.359Z,2.10
2019-01-29T08:18:44.937Z,2.10
2019-01-29T08:21:14.324Z,2.10
2019-01-29T08:24:02.867Z,2.20
2019-01-29T08:26:51.305Z,2.20
2019-01-29T08:29:39.580Z,2.20
2019-01-29T08:32:27.800Z,2.20
2019-01-29T08:35:16.116Z,2.20
2019-01-29T08:38:04.472Z,2.20
2019-01-29T08:40:52.945Z,2.20
2019-01-29T08:43:34.568Z,2.20
2019-01-29T08:46:15.755Z,2.20
2019-01-29T08:48:56.672Z,2.20
2019-01-29T08:51:38.364Z,2.30
2019-01-29T08:54:19.865Z,2.30
2019-01-29T08:57:01.401Z,2.20
2019-01-29T08:59:31.176Z,2.20
2019-01-29T09:02:19.935Z,2.20
2019-01-29T09:05:08.857Z,2.20
2019-01-29T09:07:57.473Z,2.30
2019-01-29T09:10:45.946Z,2.40
2019-01-29T09:13:34.227Z,2.40
2019-01-29T09:16:22.439Z,2.50
2019-01-29T09:19:10.662Z,2.40
2019-01-29T09:21:58.854Z,2.50
2019-01-29T09:24:47.087Z,2.60
2019-01-29T09:27:35.279Z,2.60
2019-01-29T09:30:23.810Z,2.70
2019-01-29T09:33:12.312Z,2.80
2019-01-29T09:36:00.805Z,2.90
2019-01-29T09:38:49.067Z,2.80
2019-01-29T09:41:37.259Z,2.80
2019-01-29T09:44:18.288Z,2.80
2019-01-29T09:46:47.522Z,3.00
2019-01-29T09:49:35.782Z,3.00
2019-01-29T09:52:24.157Z,3.00
2019-01-29T09:55:13.671Z,3.10
2019-01-29T09:58:03.298Z,3.00
2019-01-29T10:00:51.587Z,3.00
2019-01-29T10:03:40.220Z,3.00
2019-01-29T10:06:29.112Z,3.00
2019-01-29T10:09:17.817Z,3.00
2019-01-29T10:11:47.601Z,2.90
2019-01-29T10:14:36.011Z,3.00
2019-01-29T10:17:24.900Z,2.90
2019-01-29T10:20:13.995Z,2.90
2019-01-29T10:23:02.190Z,2.80
2019-01-29T10:25:50.685Z,2.90
2019-01-29T10:28:39.055Z,2.80
2019-01-29T10:31:27.296Z,2.80
2019-01-29T10:34:15.874Z,3.00
2019-01-29T10:37:04.168Z,3.10
2019-01-29T10:39:33.526Z,3.10
2019-01-29T10:42:21.737Z,3.10
2019-01-29T10:45:03.326Z,3.20
2019-01-29T10:47:44.227Z,3.30
2019-01-29T10:50:16.704Z,3.40
2019-01-29T10:53:04.892Z,3.40
2019-01-29T10:55:53.388Z,3.50
2019-01-29T10:58:41.627Z,3.50
2019-01-29T11:01:29.811Z,3.60
2019-01-29T11:04:18.389Z,3.60
2019-01-29T11:07:06.571Z,3.70
2019-01-29T11:09:48.425Z,3.80
2019-01-29T11:12:29.532Z,3.80
2019-01-29T11:15:10.004Z,3.90
2019-01-29T11:17:51.231Z,4.00
2019-01-29T11:20:20.496Z,4.10
2019-01-29T11:23:09.031Z,4.30
2019-01-29T11:25:57.581Z,4.60
2019-01-29T11:28:45.938Z,5.00
2019-01-29T11:31:15.054Z,5.40
2019-01-29T11:33:55.792Z,5.30
2019-01-29T11:36:37.148Z,5.10
2019-01-29T17:05:55.290Z,3.50
2019-01-29T17:08:24.858Z,3.50
2019-01-29T17:11:13.053Z,3.50
2019-01-29T17:14:01.296Z,3.50
2019-01-29T17:16:41.751Z,3.50
2019-01-29T17:19:23.017Z,3.50
2019-01-29T17:21:52.228Z,3.60
2019-01-29T17:24:42.577Z,3.60
2019-01-29T17:27:30.862Z,3.60
2019-01-29T17:30:33.366Z,3.60
2019-01-29T17:33:11.433Z,3.60
2019-01-29T17:36:00.295Z,3.60
2019-01-29T17:38:48.588Z,3.60
2019-01-29T17:50:13.416Z,3.60
2019-01-29T17:53:01.949Z,3.60
2019-01-29T17:56:09.383Z,3.60
2019-01-29T17:58:58.311Z,3.50
2019-01-29T18:01:46.881Z,3.40
2019-01-29T18:04:35.413Z,3.30
2019-01-29T18:07:23.616Z,3.10
2019-01-29T18:10:04.338Z,3.10
2019-01-29T18:12:33.716Z,3.10
2019-01-29T18:15:23.210Z,3.10
2019-01-29T18:17:52.447Z,3.00
2019-01-29T18:20:40.639Z,2.80
2019-01-29T18:23:28.909Z,2.80
2019-01-29T18:26:17.195Z,2.70
2019-01-29T18:29:05.692Z,2.70
2019-01-29T18:31:34.972Z,2.60
2019-01-29T18:34:23.216Z,2.60
2019-01-29T18:37:11.427Z,2.50
2019-01-29T18:39:59.674Z,2.60
2019-01-29T18:42:40.807Z,2.50
2019-01-29T18:45:21.812Z,2.50
2019-01-29T18:48:03.087Z,2.50
2019-01-29T18:50:32.335Z,2.50
2019-01-29T18:53:02.221Z,2.50
2019-01-29T18:55:32.283Z,2.50
2019-01-29T18:58:20.777Z,2.40
2019-01-29T19:01:09.076Z,2.20
2019-01-29T19:03:59.671Z,2.10
2019-01-29T19:07:08.731Z,2.00
2019-01-29T19:09:57.083Z,2.00
2019-01-29T19:12:45.435Z,1.90
2019-01-29T19:15:34.202Z,2.00
2019-01-29T19:18:03.619Z,1.90
2019-01-29T19:20:32.958Z,1.80
2019-01-29T19:23:02.175Z,1.80
2019-01-29T19:25:31.415Z,1.80
2019-01-29T19:28:00.490Z,1.80
2019-01-29T19:30:31.643Z,1.80
2019-01-29T19:33:00.823Z,1.80
2019-01-29T19:35:30.043Z,1.80
2019-01-29T19:37:59.508Z,1.80
2019-01-29T19:40:28.611Z,1.80
2019-01-29T19:42:59.071Z,1.80
2019-01-29T19:45:30.647Z,1.60
2019-01-29T19:48:01.410Z,1.60
2019-01-29T19:50:31.911Z,1.50
2019-01-29T19:53:01.085Z,1.50
2019-01-29T19:55:30.822Z,1.50
2019-01-29T19:58:08.781Z,1.50
2019-01-29T20:00:39.688Z,1.40
2019-01-29T20:03:08.928Z,1.50
2019-01-29T20:05:38.531Z,1.50
2019-01-29T20:08:08.399Z,1.50
2019-01-29T20:10:37.516Z,1.50
2019-01-29T20:13:06.606Z,1.50
2019-01-29T20:15:36.406Z,1.40
2019-01-29T20:18:05.731Z,1.40
2019-01-29T20:20:39.855Z,1.30
2019-01-29T20:23:09.507Z,1.40
2019-01-29T20:25:38.892Z,1.40
2019-01-29T20:28:08.200Z,1.40
2019-01-29T20:30:38.711Z,1.40
2019-01-29T20:33:07.899Z,1.40
2019-01-29T20:35:37.034Z,1.40
2019-01-29T20:38:06.467Z,1.40
2019-01-29T20:40:35.616Z,1.40
2019-01-29T20:43:05.424Z,1.30
2019-01-29T20:45:34.594Z,1.30
2019-01-29T20:48:03.691Z,1.30
2019-01-29T20:50:34.852Z,1.20
2019-01-29T20:53:04.231Z,1.30
2019-01-29T20:55:33.607Z,1.30
2019-01-29T20:58:02.692Z,1.20
2019-01-29T21:00:34.523Z,1.20
2019-01-29T21:03:03.983Z,1.20
2019-01-29T21:05:33.367Z,1.20
2019-01-29T21:08:02.434Z,1.30
2019-01-29T21:10:31.562Z,1.30
2019-01-29T21:13:00.925Z,1.30
2019-01-29T21:15:38.168Z,1.30
2019-01-29T21:18:01.172Z,1.40
2019-01-29T21:20:31.401Z,1.30
2019-01-29T21:23:00.490Z,1.40
2019-01-29T21:25:29.810Z,1.40
2019-01-29T21:27:58.885Z,1.40
2019-01-29T21:30:30.290Z,1.40
2019-01-29T21:32:59.927Z,1.30
2019-01-29T21:35:29.359Z,1.30
2019-01-29T21:37:58.619Z,1.30
2019-01-29T21:40:27.764Z,1.20
2019-01-29T21:42:57.190Z,1.20
2019-01-29T21:45:26.311Z,1.20
2019-01-29T21:47:56.919Z,1.20
2019-01-29T21:50:28.140Z,1.20
2019-01-29T21:52:57.237Z,1.20
2019-01-29T21:55:26.685Z,1.20
2019-01-29T21:57:56.093Z,1.20
2019-01-29T22:00:31.114Z,1.10
2019-01-29T22:03:00.210Z,1.10
2019-01-29T22:05:29.626Z,1.10
2019-01-29T22:07:58.968Z,1.20
2019-01-29T22:10:28.431Z,1.10
2019-01-29T22:12:57.772Z,1.10
2019-01-29T22:15:27.200Z,1.20
2019-01-29T22:17:56.575Z,1.20
2019-01-29T22:20:26.121Z,1.20
2019-01-29T22:22:55.192Z,1.20
2019-01-29T22:25:24.620Z,1.10
2019-01-29T22:27:53.834Z,1.10
2019-01-29T22:30:28.644Z,1.20
2019-01-29T22:32:58.178Z,1.20
2019-01-29T22:35:27.527Z,1.10
2019-01-29T22:37:56.880Z,1.10
2019-01-29T22:40:26.761Z,1.10
2019-01-29T22:42:57.013Z,1.10
2019-01-29T22:45:26.078Z,1.10
2019-01-29T22:47:55.186Z,1.10
2019-01-29T22:50:26.314Z,1.10
2019-01-29T22:52:55.648Z,1.20
2019-01-29T22:55:24.834Z,1.10
2019-01-29T22:57:53.923Z,1.20
2019-01-29T23:00:43.308Z,1.20
2019-01-29T23:03:14.673Z,1.30
2019-01-29T23:05:44.071Z,1.20
2019-01-29T23:08:13.139Z,1.20
2019-01-29T23:10:42.524Z,1.10
2019-01-29T23:13:11.628Z,1.20
2019-01-29T23:15:40.715Z,1.10
2019-01-29T23:18:10.048Z,1.20
2019-01-29T23:20:39.459Z,1.20
2019-01-29T23:23:08.527Z,1.20
2019-01-29T23:25:37.842Z,1.20
2019-01-29T23:28:07.204Z,1.10
2019-01-29T23:30:36.267Z,1.20
2019-01-29T23:33:05.720Z,1.20
2019-01-29T23:35:34.912Z,1.20
2019-01-29T23:38:03.990Z,1.20
2019-01-29T23:40:33.357Z,1.20
2019-01-29T23:43:02.746Z,1.20
2019-01-29T23:45:31.800Z,1.20
2019-01-29T23:48:01.183Z,1.20
2019-01-29T23:50:31.408Z,1.20
2019-01-29T23:53:01.124Z,1.20
2019-01-29T23:55:30.211Z,1.20
2019-01-29T23:57:59.543Z,1.30
